Madisonville, KY

10:03 PM CST on December 10, 2019 (GMT -0600)
Madisonville

Weather History for K2I0 - October, 2019

Change the Weather History Date:

Friday, October 25, 2019

  Actual Average (KOWB) Record (KOWB)
Temperature  
Mean Temperature 52 °F -  
Max Temperature 59 °F 65 °F 86 °F (1963)
Min Temperature 47 °F 45 °F 25 °F (2013)
Degree Days  
Heating Degree Days 12    
Growing Degree Days 2 (Base 50)    
Moisture  
Dew Point 47 °F    
Average Humidity 79    
Maximum Humidity 100    
Minimum Humidity 64    
Precipitation  
Precipitation 0.17 in - - ()
Sea Level Pressure  
Sea Level Pressure 30.22 in    
Wind  
Wind Speed 3 mph ()    
Max Wind Speed 9 mph    
Max Gust Speed -    
Visibility 9.5 miles    
Events Rain    
Averages and records for this station are not official NWS values.
T = Trace of Precipitation, MM = Missing Value Source: Averaged Metar Reports

Daily Weather History Graph

Daily Weather History Graph

Search for Another Location

Airport or City:

Astronomy

Oct. 25, 2019 Rise Set
Actual Time 7:06 AM CDT 5:59 PM CDT
Civil Twilight 6:40 AM CDT 6:26 PM CDT
Nautical Twilight 6:09 AM CDT 6:56 PM CDT
Astronomical Twilight 5:39 AM CDT 7:27 PM CDT
Moon 3:55 AM CDT (10/25) 4:56 PM CDT (10/25)
Length of Visible Light 11h 46m
Length of Day
10h 52m
Waning Crescent, 9% of the Moon is Illuminated
Oct 25
Waning Crescent
Oct 27
New
Nov 4
First Quarter
Nov 12
Full
Nov 19
Last Quarter

Hourly Weather History & Observations

Time (CDT) Temp. Dew Point Humidity Pressure Visibility Wind Dir Wind Speed Gust Speed Precip Events Conditions
12:15 AM 51.6 °F 44.8 °F 77% 30.26 in 10.0 mi Calm Calm - N/A   Scattered Clouds
12:35 AM 51.6 °F 44.8 °F 77% 30.26 in 10.0 mi Calm Calm - N/A   Clear
1:15 AM 51.1 °F 44.6 °F 78% 30.27 in 10.0 mi Calm Calm - N/A   Clear
1:35 AM 52.0 °F 45.5 °F 79% 30.27 in 10.0 mi NNW 4.6 mph - N/A   Scattered Clouds
1:55 AM 52.7 °F 45.5 °F 76% 30.28 in 10.0 mi North 3.5 mph - N/A   Mostly Cloudy
2:15 AM 52.7 °F 45.5 °F 76% 30.28 in 10.0 mi North 3.5 mph - N/A   Mostly Cloudy
2:35 AM 52.5 °F 45.5 °F 77% 30.28 in 10.0 mi North 5.8 mph - N/A   Scattered Clouds
2:55 AM 52.2 °F 45.5 °F 78% 30.27 in 10.0 mi NNE 4.6 mph - N/A   Mostly Cloudy
3:15 AM 52.3 °F 45.5 °F 78% 30.26 in 10.0 mi NE 3.5 mph - N/A   Mostly Cloudy
3:35 AM 52.2 °F 45.9 °F 79% 30.26 in 10.0 mi ENE 3.5 mph - N/A   Scattered Clouds
3:55 AM 51.8 °F 45.5 °F 79% 30.25 in 10.0 mi Calm Calm - N/A   Mostly Cloudy
4:15 AM 51.8 °F 45.7 °F 80% 30.25 in 10.0 mi NE 3.5 mph - N/A   Scattered Clouds
4:35 AM 51.3 °F 45.5 °F 81% 30.26 in 10.0 mi Calm Calm - N/A   Clear
4:55 AM 49.8 °F 44.8 °F 83% 30.26 in 10.0 mi North 4.6 mph - N/A   Clear
5:15 AM 50.0 °F 45.0 °F 83% 30.26 in 10.0 mi North 3.5 mph - N/A   Clear
5:35 AM 50.0 °F 45.5 °F 85% 30.27 in 7.0 mi NNE 3.5 mph - N/A   Clear
5:55 AM 50.0 °F 45.3 °F 84% 30.27 in 10.0 mi Calm Calm - N/A   Clear
6:15 AM 49.1 °F 44.6 °F 84% 30.26 in 7.0 mi NE 4.6 mph - N/A   Clear
6:35 AM 49.3 °F 45.1 °F 86% 30.27 in 7.0 mi North 4.6 mph - N/A   Clear
6:55 AM 49.5 °F 45.1 °F 85% 30.26 in 7.0 mi NE 3.5 mph - N/A   Clear
7:15 AM 48.7 °F 44.6 °F 86% 30.26 in 7.0 mi Calm Calm - N/A   Clear
7:35 AM 47.7 °F 43.7 °F 86% 30.27 in 5.0 mi Calm Calm - N/A   Clear
7:55 AM 48.6 °F 45.0 °F 87% 30.27 in 5.0 mi Calm Calm - N/A   Clear
8:15 AM 50.2 °F 46.0 °F 86% 30.27 in 7.0 mi NNE 4.6 mph - N/A   Clear
8:35 AM 51.3 °F 46.4 °F 83% 30.27 in 7.0 mi NE 5.8 mph - N/A   Clear
9:15 AM 52.9 °F 46.6 °F 79% 30.27 in 10.0 mi ENE 8.1 mph - N/A   Clear
9:35 AM 53.2 °F 46.6 °F 78% 30.27 in 10.0 mi ENE 5.8 mph - N/A   Clear
9:55 AM 54.0 °F 46.8 °F 77% 30.27 in 10.0 mi NE 4.6 mph - N/A   Clear
10:15 AM 54.5 °F 46.4 °F 74% 30.26 in 10.0 mi ENE 5.8 mph - N/A   Clear
10:35 AM 55.2 °F 46.4 °F 72% 30.26 in 10.0 mi NE 5.8 mph - N/A   Clear
10:55 AM 55.4 °F 46.0 °F 71% 30.26 in 10.0 mi ENE 4.6 mph - N/A   Clear
11:15 AM 56.1 °F 46.4 °F 70% 30.26 in 10.0 mi NNE 4.6 mph - N/A   Scattered Clouds
11:35 AM 56.7 °F 46.4 °F 69% 30.26 in 10.0 mi ESE 4.6 mph - N/A   Scattered Clouds
11:55 AM 57.2 °F 46.4 °F 67% 30.26 in 10.0 mi Calm Calm - N/A   Clear
12:15 PM 57.2 °F 45.9 °F 66% 30.25 in 10.0 mi NE 3.5 mph - N/A   Scattered Clouds
12:35 PM 57.6 °F 46.0 °F 65% 30.24 in 10.0 mi ENE 3.5 mph - N/A   Mostly Cloudy
12:55 PM 58.1 °F 46.2 °F 65% 30.23 in 10.0 mi North 4.6 mph - N/A   Scattered Clouds
1:15 PM 58.1 °F 46.6 °F 65% 30.22 in 10.0 mi NNE 5.8 mph - N/A Rain Light Rain
1:35 PM 58.3 °F 47.1 °F 66% 30.21 in 10.0 mi ENE 5.8 mph - N/A Rain Light Rain
1:55 PM 58.3 °F 46.8 °F 66% 30.20 in 10.0 mi NE 5.8 mph - N/A Rain Light Rain
2:15 PM 58.6 °F 46.6 °F 64% 30.20 in 10.0 mi NNE 5.8 mph - N/A   Light Drizzle
2:35 PM 58.5 °F 47.1 °F 66% 30.19 in 10.0 mi ENE 4.6 mph - N/A   Light Drizzle
2:55 PM 58.3 °F 47.7 °F 68% 30.18 in 10.0 mi East 5.8 mph - N/A Rain Rain
3:35 PM 58.3 °F 48.0 °F 69% 30.19 in 10.0 mi East 4.6 mph - N/A   Light Drizzle
4:15 PM 58.3 °F 48.4 °F 70% 30.18 in 10.0 mi East 4.6 mph - N/A   Light Drizzle
4:35 PM 58.1 °F 48.6 °F 71% 30.18 in 10.0 mi ENE 5.8 mph - N/A   Mostly Cloudy
4:55 PM 57.6 °F 48.7 °F 72% 30.18 in 10.0 mi ENE 4.6 mph - N/A   Overcast
5:15 PM 57.2 °F 49.1 °F 74% 30.19 in 10.0 mi NE 3.5 mph - N/A Rain Light Rain
5:35 PM 56.3 °F 49.6 °F 78% 30.19 in 10.0 mi ENE 4.6 mph - 0.01 in Rain Light Rain
5:55 PM 55.8 °F 50.2 °F 82% 30.18 in 10.0 mi NE 4.6 mph - 0.01 in Rain Light Rain
6:15 PM 55.4 °F 50.0 °F 82% 30.18 in 10.0 mi Calm Calm - 0.01 in Rain Light Rain
6:35 PM 55.0 °F 50.2 °F 84% 30.18 in 10.0 mi Calm Calm - 0.01 in Rain Light Rain
6:55 PM 55.4 °F 50.4 °F 83% 30.18 in 10.0 mi Calm Calm - 0.02 in   Drizzle
7:15 PM 55.6 °F 50.2 °F 82% 30.18 in 10.0 mi SE 6.9 mph - N/A Rain Rain
7:35 PM 55.4 °F 50.0 °F 82% 30.18 in 10.0 mi ESE 4.6 mph - N/A Rain Rain
7:55 PM 55.4 °F 50.2 °F 83% 30.18 in 10.0 mi ESE 4.6 mph - 0.01 in Rain Light Rain
8:15 PM 55.0 °F 50.2 °F 84% 30.17 in 10.0 mi NE 5.8 mph - 0.01 in Rain Light Rain
8:35 PM 55.0 °F 50.2 °F 84% 30.16 in 10.0 mi East 6.9 mph - 0.01 in Rain Light Rain
8:55 PM 54.9 °F 50.2 °F 84% 30.16 in 10.0 mi East 8.1 mph - 0.01 in Rain Light Rain
9:15 PM 54.9 °F 50.0 °F 84% 30.16 in 10.0 mi East 8.1 mph - 0.01 in Rain Rain
9:35 PM 54.9 °F 50.0 °F 84% 30.16 in 10.0 mi ENE 6.9 mph - 0.02 in Rain Light Rain
9:55 PM 54.5 °F 50.0 °F 85% 30.15 in 10.0 mi ENE 6.9 mph - 0.04 in Rain Rain
10:15 PM 54.5 °F 50.0 °F 85% 30.14 in 10.0 mi ENE 6.9 mph - 0.01 in Rain Light Rain
10:35 PM 54.0 °F 50.2 °F 87% 30.13 in 10.0 mi ENE 8.1 mph - 0.02 in Rain Light Rain
10:55 PM 53.8 °F 52.2 °F 94% 30.12 in 10.0 mi East 6.9 mph - 0.03 in Rain Light Rain
11:15 PM 53.8 °F 53.8 °F 100% 30.11 in 10.0 mi East 9.2 mph - N/A Rain Light Rain
11:35 PM 53.8 °F 53.8 °F 100% 30.10 in 10.0 mi East 6.9 mph - 0.02 in Rain Rain
11:55 PM 53.6 °F 53.6 °F 100% 30.07 in 10.0 mi East 9.2 mph - 0.05 in Rain Light Rain